sensor_id;sensor_type;location;lat;lon;timestamp;pressure;altitude;pressure_sealevel;temperature
20736;BMP180;10528;52.124;5.196;2023-05-07T00:01:22;101565.00;;;21.70
20736;BMP180;10528;52.124;5.196;2023-05-07T00:03:49;101557.00;;;21.70
20736;BMP180;10528;52.124;5.196;2023-05-07T00:06:16;101566.00;;;21.70
20736;BMP180;10528;52.124;5.196;2023-05-07T00:08:43;101566.00;;;21.60
20736;BMP180;10528;52.124;5.196;2023-05-07T00:11:09;101561.00;;;21.60
20736;BMP180;10528;52.124;5.196;2023-05-07T00:13:36;101558.00;;;21.60
20736;BMP180;10528;52.124;5.196;2023-05-07T00:16:04;101559.00;;;21.60
20736;BMP180;10528;52.124;5.196;2023-05-07T00:18:31;101559.00;;;21.60
20736;BMP180;10528;52.124;5.196;2023-05-07T00:20:58;101556.00;;;21.60
20736;BMP180;10528;52.124;5.196;2023-05-07T00:23:24;101556.00;;;21.50
20736;BMP180;10528;52.124;5.196;2023-05-07T00:25:51;101558.00;;;21.50
20736;BMP180;10528;52.124;5.196;2023-05-07T00:28:18;101558.00;;;21.50
20736;BMP180;10528;52.124;5.196;2023-05-07T00:30:45;101556.00;;;21.50
20736;BMP180;10528;52.124;5.196;2023-05-07T00:33:11;101557.00;;;21.50
20736;BMP180;10528;52.124;5.196;2023-05-07T00:35:38;101557.00;;;21.50
20736;BMP180;10528;52.124;5.196;2023-05-07T00:38:05;101560.00;;;21.50
20736;BMP180;10528;52.124;5.196;2023-05-07T00:40:32;101551.00;;;21.50
20736;BMP180;10528;52.124;5.196;2023-05-07T00:42:59;101552.00;;;21.50
20736;BMP180;10528;52.124;5.196;2023-05-07T00:45:27;101543.00;;;21.50
20736;BMP180;10528;52.124;5.196;2023-05-07T00:47:57;101546.00;;;21.50
20736;BMP180;10528;52.124;5.196;2023-05-07T00:50:26;101549.00;;;21.50
20736;BMP180;10528;52.124;5.196;2023-05-07T00:52:54;101548.00;;;21.50
20736;BMP180;10528;52.124;5.196;2023-05-07T00:55:23;101547.00;;;21.50
20736;BMP180;10528;52.124;5.196;2023-05-07T00:57:51;101544.00;;;21.50
20736;BMP180;10528;52.124;5.196;2023-05-07T01:00:18;101542.00;;;21.50
20736;BMP180;10528;52.124;5.196;2023-05-07T01:02:46;101542.00;;;21.50
20736;BMP180;10528;52.124;5.196;2023-05-07T01:05:17;101549.00;;;21.50
20736;BMP180;10528;52.124;5.196;2023-05-07T01:07:46;101543.00;;;21.50
20736;BMP180;10528;52.124;5.196;2023-05-07T01:10:14;101553.00;;;21.50
20736;BMP180;10528;52.124;5.196;2023-05-07T01:12:43;101540.00;;;21.50
20736;BMP180;10528;52.124;5.196;2023-05-07T01:15:11;101557.00;;;21.50
20736;BMP180;10528;52.124;5.196;2023-05-07T01:17:40;101555.00;;;21.50
20736;BMP180;10528;52.124;5.196;2023-05-07T01:20:14;101551.00;;;21.50
20736;BMP180;10528;52.124;5.196;2023-05-07T01:22:43;101546.00;;;21.50
20736;BMP180;10528;52.124;5.196;2023-05-07T01:25:11;101543.00;;;21.50
20736;BMP180;10528;52.124;5.196;2023-05-07T01:27:42;101548.00;;;21.50
20736;BMP180;10528;52.124;5.196;2023-05-07T01:30:09;101537.00;;;21.50
20736;BMP180;10528;52.124;5.196;2023-05-07T01:33:00;101547.00;;;21.50
20736;BMP180;10528;52.124;5.196;2023-05-07T01:35:36;101556.00;;;21.50
20736;BMP180;10528;52.124;5.196;2023-05-07T01:38:05;101557.00;;;21.50
20736;BMP180;10528;52.124;5.196;2023-05-07T01:40:34;101553.00;;;21.50
20736;BMP180;10528;52.124;5.196;2023-05-07T01:43:03;101551.00;;;21.50
20736;BMP180;10528;52.124;5.196;2023-05-07T01:45:32;101538.00;;;21.50
20736;BMP180;10528;52.124;5.196;2023-05-07T01:47:59;101540.00;;;21.50
20736;BMP180;10528;52.124;5.196;2023-05-07T01:50:27;101544.00;;;21.50
20736;BMP180;10528;52.124;5.196;2023-05-07T01:52:54;101542.00;;;21.50
20736;BMP180;10528;52.124;5.196;2023-05-07T01:55:22;101541.00;;;21.50
20736;BMP180;10528;52.124;5.196;2023-05-07T01:57:50;101543.00;;;21.50
20736;BMP180;10528;52.124;5.196;2023-05-07T02:00:17;101540.00;;;21.50
20736;BMP180;10528;52.124;5.196;2023-05-07T02:02:45;101535.00;;;21.50
20736;BMP180;10528;52.124;5.196;2023-05-07T02:05:25;101536.00;;;21.50
20736;BMP180;10528;52.124;5.196;2023-05-07T02:07:58;101539.00;;;21.50
20736;BMP180;10528;52.124;5.196;2023-05-07T02:10:27;101534.00;;;21.50
20736;BMP180;10528;52.124;5.196;2023-05-07T02:12:53;101536.00;;;21.50
20736;BMP180;10528;52.124;5.196;2023-05-07T02:15:20;101527.00;;;21.50
20736;BMP180;10528;52.124;5.196;2023-05-07T02:18:08;101525.00;;;21.50
20736;BMP180;10528;52.124;5.196;2023-05-07T02:20:36;101514.00;;;21.40
20736;BMP180;10528;52.124;5.196;2023-05-07T02:23:03;101521.00;;;21.40
20736;BMP180;10528;52.124;5.196;2023-05-07T02:25:30;101513.00;;;21.40
20736;BMP180;10528;52.124;5.196;2023-05-07T02:27:57;101509.00;;;21.40
20736;BMP180;10528;52.124;5.196;2023-05-07T02:30:35;101523.00;;;21.40
20736;BMP180;10528;52.124;5.196;2023-05-07T02:33:01;101525.00;;;21.40
20736;BMP180;10528;52.124;5.196;2023-05-07T02:35:28;101525.00;;;21.40
20736;BMP180;10528;52.124;5.196;2023-05-07T02:37:55;101530.00;;;21.40
20736;BMP180;10528;52.124;5.196;2023-05-07T02:40:24;101526.00;;;21.40
20736;BMP180;10528;52.124;5.196;2023-05-07T02:42:51;101526.00;;;21.40
20736;BMP180;10528;52.124;5.196;2023-05-07T02:45:18;101536.00;;;21.40
20736;BMP180;10528;52.124;5.196;2023-05-07T02:47:46;101531.00;;;21.40
20736;BMP180;10528;52.124;5.196;2023-05-07T02:50:13;101545.00;;;21.40
20736;BMP180;10528;52.124;5.196;2023-05-07T02:52:41;101542.00;;;21.40
20736;BMP180;10528;52.124;5.196;2023-05-07T02:55:08;101542.00;;;21.40
20736;BMP180;10528;52.124;5.196;2023-05-07T02:57:35;101537.00;;;21.40
20736;BMP180;10528;52.124;5.196;2023-05-07T03:00:17;101531.00;;;21.40
20736;BMP180;10528;52.124;5.196;2023-05-07T03:02:52;101528.00;;;21.40
20736;BMP180;10528;52.124;5.196;2023-05-07T03:05:19;101526.00;;;21.30
20736;BMP180;10528;52.124;5.196;2023-05-07T03:07:46;101522.00;;;21.30
20736;BMP180;10528;52.124;5.196;2023-05-07T03:10:14;101519.00;;;21.30
20736;BMP180;10528;52.124;5.196;2023-05-07T03:12:41;101519.00;;;21.30
20736;BMP180;10528;52.124;5.196;2023-05-07T03:15:10;101521.00;;;21.30
20736;BMP180;10528;52.124;5.196;2023-05-07T03:17:40;101519.00;;;21.30
20736;BMP180;10528;52.124;5.196;2023-05-07T03:20:08;101523.00;;;21.20
20736;BMP180;10528;52.124;5.196;2023-05-07T03:22:37;101519.00;;;21.20
20736;BMP180;10528;52.124;5.196;2023-05-07T03:25:05;101526.00;;;21.20
20736;BMP180;10528;52.124;5.196;2023-05-07T03:27:32;101524.00;;;21.20
20736;BMP180;10528;52.124;5.196;2023-05-07T03:29:59;101517.00;;;21.20
20736;BMP180;10528;52.124;5.196;2023-05-07T03:32:27;101525.00;;;21.20
20736;BMP180;10528;52.124;5.196;2023-05-07T03:34:53;101534.00;;;21.20
20736;BMP180;10528;52.124;5.196;2023-05-07T03:37:21;101523.00;;;21.20
20736;BMP180;10528;52.124;5.196;2023-05-07T03:39:48;101517.00;;;21.20
20736;BMP180;10528;52.124;5.196;2023-05-07T03:42:15;101520.00;;;21.20
20736;BMP180;10528;52.124;5.196;2023-05-07T03:44:43;101531.00;;;21.10
20736;BMP180;10528;52.124;5.196;2023-05-07T03:47:09;101531.00;;;21.10
20736;BMP180;10528;52.124;5.196;2023-05-07T03:49:37;101521.00;;;21.10
20736;BMP180;10528;52.124;5.196;2023-05-07T03:52:05;101522.00;;;21.10
20736;BMP180;10528;52.124;5.196;2023-05-07T03:54:32;101515.00;;;21.10
20736;BMP180;10528;52.124;5.196;2023-05-07T03:56:59;101529.00;;;21.10
20736;BMP180;10528;52.124;5.196;2023-05-07T03:59:26;101522.00;;;21.10
20736;BMP180;10528;52.124;5.196;2023-05-07T04:01:53;101532.00;;;21.10
20736;BMP180;10528;52.124;5.196;2023-05-07T04:04:22;101526.00;;;21.10
20736;BMP180;10528;52.124;5.196;2023-05-07T04:06:49;101524.00;;;21.10
20736;BMP180;10528;52.124;5.196;2023-05-07T04:09:16;101537.00;;;21.00
20736;BMP180;10528;52.124;5.196;2023-05-07T04:11:45;101533.00;;;21.00
20736;BMP180;10528;52.124;5.196;2023-05-07T04:14:12;101538.00;;;21.00
20736;BMP180;10528;52.124;5.196;2023-05-07T04:16:39;101541.00;;;21.00
20736;BMP180;10528;52.124;5.196;2023-05-07T04:19:07;101545.00;;;21.00
20736;BMP180;10528;52.124;5.196;2023-05-07T04:21:34;101543.00;;;21.00
20736;BMP180;10528;52.124;5.196;2023-05-07T04:24:03;101542.00;;;21.00
20736;BMP180;10528;52.124;5.196;2023-05-07T04:26:30;101539.00;;;21.00
20736;BMP180;10528;52.124;5.196;2023-05-07T04:28:58;101540.00;;;21.00
20736;BMP180;10528;52.124;5.196;2023-05-07T04:31:30;101546.00;;;21.00
20736;BMP180;10528;52.124;5.196;2023-05-07T04:33:58;101552.00;;;21.00
20736;BMP180;10528;52.124;5.196;2023-05-07T04:36:24;101542.00;;;21.00
20736;BMP180;10528;52.124;5.196;2023-05-07T04:39:00;101543.00;;;21.00
20736;BMP180;10528;52.124;5.196;2023-05-07T04:41:28;101546.00;;;21.00
20736;BMP180;10528;52.124;5.196;2023-05-07T04:43:55;101550.00;;;21.00
20736;BMP180;10528;52.124;5.196;2023-05-07T04:46:24;101549.00;;;21.00
20736;BMP180;10528;52.124;5.196;2023-05-07T04:48:53;101546.00;;;21.00
20736;BMP180;10528;52.124;5.196;2023-05-07T04:51:20;101547.00;;;21.00
20736;BMP180;10528;52.124;5.196;2023-05-07T04:53:47;101541.00;;;21.00
20736;BMP180;10528;52.124;5.196;2023-05-07T04:56:14;101553.00;;;21.00
20736;BMP180;10528;52.124;5.196;2023-05-07T04:58:43;101549.00;;;21.00
20736;BMP180;10528;52.124;5.196;2023-05-07T05:01:10;101544.00;;;21.00
20736;BMP180;10528;52.124;5.196;2023-05-07T05:03:38;101543.00;;;21.00
20736;BMP180;10528;52.124;5.196;2023-05-07T05:06:07;101544.00;;;21.00
20736;BMP180;10528;52.124;5.196;2023-05-07T05:08:34;101545.00;;;20.90
20736;BMP180;10528;52.124;5.196;2023-05-07T05:11:02;101546.00;;;20.90
20736;BMP180;10528;52.124;5.196;2023-05-07T05:13:31;101549.00;;;21.00
20736;BMP180;10528;52.124;5.196;2023-05-07T05:15:59;101555.00;;;21.00
20736;BMP180;10528;52.124;5.196;2023-05-07T05:18:28;101551.00;;;21.00
20736;BMP180;10528;52.124;5.196;2023-05-07T05:20:55;101558.00;;;21.00
20736;BMP180;10528;52.124;5.196;2023-05-07T05:23:22;101557.00;;;21.00
20736;BMP180;10528;52.124;5.196;2023-05-07T05:25:49;101564.00;;;21.00
20736;BMP180;10528;52.124;5.196;2023-05-07T05:28:16;101566.00;;;21.00
20736;BMP180;10528;52.124;5.196;2023-05-07T05:30:43;101571.00;;;21.00
20736;BMP180;10528;52.124;5.196;2023-05-07T05:33:10;101565.00;;;21.00
20736;BMP180;10528;52.124;5.196;2023-05-07T05:35:37;101570.00;;;20.90
20736;BMP180;10528;52.124;5.196;2023-05-07T05:38:09;101575.00;;;20.90
20736;BMP180;10528;52.124;5.196;2023-05-07T05:40:37;101582.00;;;20.90
20736;BMP180;10528;52.124;5.196;2023-05-07T05:43:05;101579.00;;;20.90
20736;BMP180;10528;52.124;5.196;2023-05-07T05:45:32;101586.00;;;21.00
20736;BMP180;10528;52.124;5.196;2023-05-07T05:48:00;101591.00;;;21.00
20736;BMP180;10528;52.124;5.196;2023-05-07T05:50:27;101593.00;;;21.00
20736;BMP180;10528;52.124;5.196;2023-05-07T05:52:54;101586.00;;;21.00
20736;BMP180;10528;52.124;5.196;2023-05-07T05:55:21;101584.00;;;21.10
20736;BMP180;10528;52.124;5.196;2023-05-07T05:57:49;101592.00;;;21.10
20736;BMP180;10528;52.124;5.196;2023-05-07T06:00:16;101594.00;;;21.10
20736;BMP180;10528;52.124;5.196;2023-05-07T06:02:46;101597.00;;;21.10
20736;BMP180;10528;52.124;5.196;2023-05-07T06:05:19;101597.00;;;21.10
20736;BMP180;10528;52.124;5.196;2023-05-07T06:07:49;101597.00;;;21.10
20736;BMP180;10528;52.124;5.196;2023-05-07T06:10:17;101601.00;;;21.10
20736;BMP180;10528;52.124;5.196;2023-05-07T06:12:44;101599.00;;;21.00
20736;BMP180;10528;52.124;5.196;2023-05-07T06:15:12;101605.00;;;21.00
20736;BMP180;10528;52.124;5.196;2023-05-07T06:17:40;101607.00;;;21.00
20736;BMP180;10528;52.124;5.196;2023-05-07T06:20:09;101608.00;;;21.00
20736;BMP180;10528;52.124;5.196;2023-05-07T06:22:38;101613.00;;;21.00
20736;BMP180;10528;52.124;5.196;2023-05-07T06:25:05;101598.00;;;21.00
20736;BMP180;10528;52.124;5.196;2023-05-07T06:27:32;101605.00;;;21.00
20736;BMP180;10528;52.124;5.196;2023-05-07T06:29:59;101601.00;;;21.00
20736;BMP180;10528;52.124;5.196;2023-05-07T06:32:27;101612.00;;;21.00
20736;BMP180;10528;52.124;5.196;2023-05-07T06:34:54;101617.00;;;21.10
20736;BMP180;10528;52.124;5.196;2023-05-07T06:37:22;101619.00;;;21.10
20736;BMP180;10528;52.124;5.196;2023-05-07T06:39:55;101616.00;;;21.10
20736;BMP180;10528;52.124;5.196;2023-05-07T06:42:25;101617.00;;;21.20
20736;BMP180;10528;52.124;5.196;2023-05-07T06:44:57;101626.00;;;21.20
20736;BMP180;10528;52.124;5.196;2023-05-07T06:47:25;101625.00;;;21.30
20736;BMP180;10528;52.124;5.196;2023-05-07T06:49:54;101616.00;;;21.30
20736;BMP180;10528;52.124;5.196;2023-05-07T06:52:24;101618.00;;;21.40
20736;BMP180;10528;52.124;5.196;2023-05-07T06:54:52;101624.00;;;21.40
20736;BMP180;10528;52.124;5.196;2023-05-07T06:57:21;101628.00;;;21.50
20736;BMP180;10528;52.124;5.196;2023-05-07T06:59:48;101628.00;;;21.60
20736;BMP180;10528;52.124;5.196;2023-05-07T07:02:15;101624.00;;;21.60
20736;BMP180;10528;52.124;5.196;2023-05-07T07:04:45;101627.00;;;21.70
20736;BMP180;10528;52.124;5.196;2023-05-07T07:07:12;101628.00;;;21.80
20736;BMP180;10528;52.124;5.196;2023-05-07T07:09:42;101628.00;;;21.80
20736;BMP180;10528;52.124;5.196;2023-05-07T07:12:09;101625.00;;;21.90
20736;BMP180;10528;52.124;5.196;2023-05-07T07:14:38;101628.00;;;21.90
20736;BMP180;10528;52.124;5.196;2023-05-07T07:17:05;101631.00;;;22.00
20736;BMP180;10528;52.124;5.196;2023-05-07T07:19:33;101631.00;;;22.00
20736;BMP180;10528;52.124;5.196;2023-05-07T07:22:02;101634.00;;;22.00
20736;BMP180;10528;52.124;5.196;2023-05-07T07:24:29;101625.00;;;22.10
20736;BMP180;10528;52.124;5.196;2023-05-07T07:26:59;101614.00;;;22.10
20736;BMP180;10528;52.124;5.196;2023-05-07T07:29:27;101617.00;;;22.20
20736;BMP180;10528;52.124;5.196;2023-05-07T07:31:54;101615.00;;;22.40
20736;BMP180;10528;52.124;5.196;2023-05-07T07:34:22;101606.00;;;22.50
20736;BMP180;10528;52.124;5.196;2023-05-07T07:36:49;101628.00;;;22.60
20736;BMP180;10528;52.124;5.196;2023-05-07T07:39:18;101624.00;;;22.70
20736;BMP180;10528;52.124;5.196;2023-05-07T07:41:47;101630.00;;;22.80
20736;BMP180;10528;52.124;5.196;2023-05-07T07:44:15;101637.00;;;22.90
20736;BMP180;10528;52.124;5.196;2023-05-07T07:46:46;101644.00;;;23.00
20736;BMP180;10528;52.124;5.196;2023-05-07T07:49:14;101645.00;;;23.00
20736;BMP180;10528;52.124;5.196;2023-05-07T07:51:42;101637.00;;;23.00
20736;BMP180;10528;52.124;5.196;2023-05-07T07:54:11;101642.00;;;23.10
20736;BMP180;10528;52.124;5.196;2023-05-07T07:56:38;101639.00;;;23.10
20736;BMP180;10528;52.124;5.196;2023-05-07T07:59:06;101634.00;;;23.10
20736;BMP180;10528;52.124;5.196;2023-05-07T08:01:36;101631.00;;;23.00
20736;BMP180;10528;52.124;5.196;2023-05-07T08:04:04;101641.00;;;23.00
20736;BMP180;10528;52.124;5.196;2023-05-07T08:06:35;101639.00;;;23.00
20736;BMP180;10528;52.124;5.196;2023-05-07T08:09:02;101642.00;;;23.00
20736;BMP180;10528;52.124;5.196;2023-05-07T08:11:30;101638.00;;;22.90
20736;BMP180;10528;52.124;5.196;2023-05-07T08:13:57;101641.00;;;22.90
20736;BMP180;10528;52.124;5.196;2023-05-07T08:16:24;101636.00;;;22.90
20736;BMP180;10528;52.124;5.196;2023-05-07T08:18:52;101643.00;;;22.90
20736;BMP180;10528;52.124;5.196;2023-05-07T08:21:19;101642.00;;;22.90
20736;BMP180;10528;52.124;5.196;2023-05-07T08:23:46;101638.00;;;22.90
20736;BMP180;10528;52.124;5.196;2023-05-07T08:26:13;101638.00;;;22.90
20736;BMP180;10528;52.124;5.196;2023-05-07T08:28:41;101633.00;;;22.90
20736;BMP180;10528;52.124;5.196;2023-05-07T08:31:08;101636.00;;;22.90
20736;BMP180;10528;52.124;5.196;2023-05-07T08:33:38;101631.00;;;22.90
20736;BMP180;10528;52.124;5.196;2023-05-07T08:36:05;101633.00;;;22.90
20736;BMP180;10528;52.124;5.196;2023-05-07T08:38:32;101647.00;;;22.90
20736;BMP180;10528;52.124;5.196;2023-05-07T08:40:59;101651.00;;;22.90
20736;BMP180;10528;52.124;5.196;2023-05-07T08:43:32;101652.00;;;23.00
20736;BMP180;10528;52.124;5.196;2023-05-07T08:46:01;101654.00;;;23.10
20736;BMP180;10528;52.124;5.196;2023-05-07T08:48:32;101654.00;;;23.10
20736;BMP180;10528;52.124;5.196;2023-05-07T08:51:18;101660.00;;;23.20
20736;BMP180;10528;52.124;5.196;2023-05-07T08:53:48;101665.00;;;23.20
20736;BMP180;10528;52.124;5.196;2023-05-07T08:56:20;101652.00;;;23.30
20736;BMP180;10528;52.124;5.196;2023-05-07T08:58:50;101666.00;;;23.30
20736;BMP180;10528;52.124;5.196;2023-05-07T09:01:18;101657.00;;;23.30
20736;BMP180;10528;52.124;5.196;2023-05-07T09:03:50;101655.00;;;23.40
20736;BMP180;10528;52.124;5.196;2023-05-07T09:06:18;101662.00;;;23.40
20736;BMP180;10528;52.124;5.196;2023-05-07T09:08:55;101663.00;;;23.50
20736;BMP180;10528;52.124;5.196;2023-05-07T09:11:25;101668.00;;;23.60
20736;BMP180;10528;52.124;5.196;2023-05-07T09:13:56;101664.00;;;23.60
20736;BMP180;10528;52.124;5.196;2023-05-07T09:16:26;101659.00;;;23.70
20736;BMP180;10528;52.124;5.196;2023-05-07T09:18:55;101665.00;;;23.80
20736;BMP180;10528;52.124;5.196;2023-05-07T09:21:22;101665.00;;;23.80
20736;BMP180;10528;52.124;5.196;2023-05-07T09:23:55;101661.00;;;23.90
20736;BMP180;10528;52.124;5.196;2023-05-07T09:26:31;101667.00;;;23.90
20736;BMP180;10528;52.124;5.196;2023-05-07T09:28:59;101673.00;;;23.90
20736;BMP180;10528;52.124;5.196;2023-05-07T09:31:27;101674.00;;;23.90
20736;BMP180;10528;52.124;5.196;2023-05-07T09:33:55;101670.00;;;23.90
20736;BMP180;10528;52.124;5.196;2023-05-07T09:36:26;101660.00;;;23.90
20736;BMP180;10528;52.124;5.196;2023-05-07T09:38:53;101657.00;;;23.90
20736;BMP180;10528;52.124;5.196;2023-05-07T09:41:20;101668.00;;;24.00
20736;BMP180;10528;52.124;5.196;2023-05-07T09:44:13;101655.00;;;24.00
20736;BMP180;10528;52.124;5.196;2023-05-07T09:46:47;101670.00;;;24.00
20736;BMP180;10528;52.124;5.196;2023-05-07T09:49:24;101672.00;;;24.10
20736;BMP180;10528;52.124;5.196;2023-05-07T09:52:01;101676.00;;;24.20
20736;BMP180;10528;52.124;5.196;2023-05-07T09:54:35;101671.00;;;24.30
20736;BMP180;10528;52.124;5.196;2023-05-07T09:57:05;101673.00;;;24.40
20736;BMP180;10528;52.124;5.196;2023-05-07T09:59:36;101683.00;;;24.50
20736;BMP180;10528;52.124;5.196;2023-05-07T10:02:09;101677.00;;;24.60
20736;BMP180;10528;52.124;5.196;2023-05-07T10:04:46;101677.00;;;24.60
20736;BMP180;10528;52.124;5.196;2023-05-07T10:07:19;101682.00;;;24.70
20736;BMP180;10528;52.124;5.196;2023-05-07T10:09:49;101683.00;;;24.80
20736;BMP180;10528;52.124;5.196;2023-05-07T10:12:24;101673.00;;;24.90
20736;BMP180;10528;52.124;5.196;2023-05-07T10:14:52;101680.00;;;24.90
20736;BMP180;10528;52.124;5.196;2023-05-07T10:17:23;101674.00;;;24.90
20736;BMP180;10528;52.124;5.196;2023-05-07T10:19:53;101669.00;;;25.00
20736;BMP180;10528;52.124;5.196;2023-05-07T10:22:23;101681.00;;;25.00
20736;BMP180;10528;52.124;5.196;2023-05-07T10:24:53;101676.00;;;25.10
20736;BMP180;10528;52.124;5.196;2023-05-07T10:27:23;101688.00;;;25.10
20736;BMP180;10528;52.124;5.196;2023-05-07T10:32:55;101669.00;;;25.20
20736;BMP180;10528;52.124;5.196;2023-05-07T10:35:32;101671.00;;;25.30
20736;BMP180;10528;52.124;5.196;2023-05-07T10:38:04;101666.00;;;25.40
20736;BMP180;10528;52.124;5.196;2023-05-07T10:40:35;101681.00;;;25.50
20736;BMP180;10528;52.124;5.196;2023-05-07T10:43:04;101686.00;;;25.60
20736;BMP180;10528;52.124;5.196;2023-05-07T10:46:18;101689.00;;;25.60
20736;BMP180;10528;52.124;5.196;2023-05-07T10:49:06;101681.00;;;25.70
20736;BMP180;10528;52.124;5.196;2023-05-07T10:52:24;101685.00;;;25.70
20736;BMP180;10528;52.124;5.196;2023-05-07T10:57:52;101683.00;;;25.90
20736;BMP180;10528;52.124;5.196;2023-05-07T11:03:07;101675.00;;;26.00
20736;BMP180;10528;52.124;5.196;2023-05-07T11:05:44;101671.00;;;26.00
20736;BMP180;10528;52.124;5.196;2023-05-07T11:08:24;101682.00;;;26.10
20736;BMP180;10528;52.124;5.196;2023-05-07T11:11:01;101683.00;;;26.20
20736;BMP180;10528;52.124;5.196;2023-05-07T11:13:48;101693.00;;;26.20
20736;BMP180;10528;52.124;5.196;2023-05-07T11:16:29;101677.00;;;26.30
20736;BMP180;10528;52.124;5.196;2023-05-07T11:19:05;101687.00;;;26.40
20736;BMP180;10528;52.124;5.196;2023-05-07T11:21:42;101685.00;;;26.50
20736;BMP180;10528;52.124;5.196;2023-05-07T11:24:16;101688.00;;;26.60
20736;BMP180;10528;52.124;5.196;2023-05-07T11:26:50;101683.00;;;26.70
20736;BMP180;10528;52.124;5.196;2023-05-07T11:29:21;101688.00;;;26.80
20736;BMP180;10528;52.124;5.196;2023-05-07T11:31:55;101682.00;;;26.80
20736;BMP180;10528;52.124;5.196;2023-05-07T11:34:26;101683.00;;;26.80
20736;BMP180;10528;52.124;5.196;2023-05-07T11:36:58;101683.00;;;26.90
20736;BMP180;10528;52.124;5.196;2023-05-07T11:39:37;101682.00;;;26.90
20736;BMP180;10528;52.124;5.196;2023-05-07T11:42:04;101682.00;;;26.90
20736;BMP180;10528;52.124;5.196;2023-05-07T11:44:44;101685.00;;;26.90
20736;BMP180;10528;52.124;5.196;2023-05-07T11:47:18;101677.00;;;27.00
20736;BMP180;10528;52.124;5.196;2023-05-07T11:49:51;101687.00;;;27.10
20736;BMP180;10528;52.124;5.196;2023-05-07T11:52:20;101686.00;;;27.10
20736;BMP180;10528;52.124;5.196;2023-05-07T11:54:54;101685.00;;;27.10
20736;BMP180;10528;52.124;5.196;2023-05-07T11:57:23;101685.00;;;27.10
20736;BMP180;10528;52.124;5.196;2023-05-07T12:00:02;101691.00;;;27.20
20736;BMP180;10528;52.124;5.196;2023-05-07T12:02:40;101692.00;;;27.20
20736;BMP180;10528;52.124;5.196;2023-05-07T12:05:08;101686.00;;;27.20
20736;BMP180;10528;52.124;5.196;2023-05-07T12:07:36;101686.00;;;27.30
20736;BMP180;10528;52.124;5.196;2023-05-07T12:10:06;101689.00;;;27.30
20736;BMP180;10528;52.124;5.196;2023-05-07T12:12:41;101685.00;;;27.30
20736;BMP180;10528;52.124;5.196;2023-05-07T12:15:13;101690.00;;;27.30
20736;BMP180;10528;52.124;5.196;2023-05-07T12:17:42;101686.00;;;27.30
20736;BMP180;10528;52.124;5.196;2023-05-07T12:20:10;101682.00;;;27.30
20736;BMP180;10528;52.124;5.196;2023-05-07T12:22:37;101678.00;;;27.30
20736;BMP180;10528;52.124;5.196;2023-05-07T12:25:04;101681.00;;;27.30
20736;BMP180;10528;52.124;5.196;2023-05-07T12:27:32;101683.00;;;27.30
20736;BMP180;10528;52.124;5.196;2023-05-07T12:29:59;101680.00;;;27.40
20736;BMP180;10528;52.124;5.196;2023-05-07T12:32:26;101682.00;;;27.40
20736;BMP180;10528;52.124;5.196;2023-05-07T12:34:53;101683.00;;;27.50
20736;BMP180;10528;52.124;5.196;2023-05-07T12:37:24;101682.00;;;27.50
20736;BMP180;10528;52.124;5.196;2023-05-07T12:40:06;101681.00;;;27.50
20736;BMP180;10528;52.124;5.196;2023-05-07T12:42:37;101687.00;;;27.60
20736;BMP180;10528;52.124;5.196;2023-05-07T12:45:11;101680.00;;;27.60
20736;BMP180;10528;52.124;5.196;2023-05-07T12:47:39;101693.00;;;27.60
20736;BMP180;10528;52.124;5.196;2023-05-07T12:50:06;101684.00;;;27.70
20736;BMP180;10528;52.124;5.196;2023-05-07T12:52:34;101694.00;;;27.70
20736;BMP180;10528;52.124;5.196;2023-05-07T12:55:06;101686.00;;;27.70
20736;BMP180;10528;52.124;5.196;2023-05-07T12:57:40;101691.00;;;27.70
20736;BMP180;10528;52.124;5.196;2023-05-07T13:00:08;101694.00;;;27.70
20736;BMP180;10528;52.124;5.196;2023-05-07T13:02:41;101697.00;;;27.70
20736;BMP180;10528;52.124;5.196;2023-05-07T13:05:08;101699.00;;;27.70
20736;BMP180;10528;52.124;5.196;2023-05-07T13:07:36;101688.00;;;27.80
20736;BMP180;10528;52.124;5.196;2023-05-07T13:10:05;101697.00;;;27.80
20736;BMP180;10528;52.124;5.196;2023-05-07T13:12:32;101696.00;;;27.80
20736;BMP180;10528;52.124;5.196;2023-05-07T13:14:59;101695.00;;;27.90
20736;BMP180;10528;52.124;5.196;2023-05-07T13:17:26;101704.00;;;27.90
20736;BMP180;10528;52.124;5.196;2023-05-07T13:19:53;101700.00;;;27.90
20736;BMP180;10528;52.124;5.196;2023-05-07T13:22:20;101702.00;;;27.90
20736;BMP180;10528;52.124;5.196;2023-05-07T13:24:46;101707.00;;;27.80
20736;BMP180;10528;52.124;5.196;2023-05-07T13:27:13;101708.00;;;27.80
20736;BMP180;10528;52.124;5.196;2023-05-07T13:29:40;101698.00;;;27.80
20736;BMP180;10528;52.124;5.196;2023-05-07T13:32:07;101705.00;;;27.80
20736;BMP180;10528;52.124;5.196;2023-05-07T13:34:34;101696.00;;;27.80
20736;BMP180;10528;52.124;5.196;2023-05-07T13:37:01;101698.00;;;27.70
20736;BMP180;10528;52.124;5.196;2023-05-07T13:39:28;101696.00;;;27.60
20736;BMP180;10528;52.124;5.196;2023-05-07T13:41:55;101688.00;;;27.50
20736;BMP180;10528;52.124;5.196;2023-05-07T13:44:22;101701.00;;;27.50
20736;BMP180;10528;52.124;5.196;2023-05-07T13:46:48;101700.00;;;27.50
20736;BMP180;10528;52.124;5.196;2023-05-07T13:49:15;101694.00;;;27.50
20736;BMP180;10528;52.124;5.196;2023-05-07T13:51:42;101691.00;;;27.50
20736;BMP180;10528;52.124;5.196;2023-05-07T13:54:09;101691.00;;;27.50
20736;BMP180;10528;52.124;5.196;2023-05-07T13:56:36;101691.00;;;27.50
20736;BMP180;10528;52.124;5.196;2023-05-07T13:59:03;101696.00;;;27.50
20736;BMP180;10528;52.124;5.196;2023-05-07T14:01:31;101696.00;;;27.50
20736;BMP180;10528;52.124;5.196;2023-05-07T14:03:58;101701.00;;;27.60
20736;BMP180;10528;52.124;5.196;2023-05-07T14:06:26;101683.00;;;27.60
20736;BMP180;10528;52.124;5.196;2023-05-07T14:08:53;101698.00;;;27.70
20736;BMP180;10528;52.124;5.196;2023-05-07T14:11:20;101701.00;;;27.70
20736;BMP180;10528;52.124;5.196;2023-05-07T14:13:47;101710.00;;;27.80
20736;BMP180;10528;52.124;5.196;2023-05-07T14:16:15;101699.00;;;27.80
20736;BMP180;10528;52.124;5.196;2023-05-07T14:18:42;101696.00;;;27.80